Terminal Aerodrome Forecast
Issued by NWS

Home | Current Version | Previous Version | Text Only | Print | Product List | Glossary On
Versions: 1 2 3 4 5 6 7 8 9 10 11 12 13 14
000
FTUS46 KMTR 041720
TAFSTS
TAF
KSTS 041720Z 0418/0518 19003KT P6SM SKC
     FM042100 19011KT P6SM SKC
     FM050500 18005KT P6SM SKC
     FM050700 17003KT P6SM BKN010
     FM051000 17002KT P6SM OVC007
     FM051700 18003KT P6SM SCT012=

USA.gov is the U.S. government's official web portal to all federal, state and local government web resources and services.